createdAt,value
2018-04-10T00:00:18.771Z,56.11
2018-04-10T00:02:49.767Z,56.00
2018-04-10T00:05:20.775Z,56.65
2018-04-10T00:07:51.815Z,56.43
2018-04-10T00:10:22.836Z,56.54
2018-04-10T00:12:53.865Z,56.96
2018-04-10T00:15:24.870Z,57.13
2018-04-10T00:17:55.875Z,57.04
2018-04-10T00:20:26.915Z,56.85
2018-04-10T00:22:57.918Z,57.09
2018-04-10T00:25:28.959Z,57.51
2018-04-10T00:27:59.946Z,57.32
2018-04-10T00:30:30.944Z,57.01
2018-04-10T00:33:01.941Z,56.81
2018-04-10T00:35:32.991Z,56.84
2018-04-10T00:38:04.018Z,56.82
2018-04-10T00:40:35.017Z,57.26
2018-04-10T00:43:06.066Z,57.10
2018-04-10T00:45:37.090Z,56.89
2018-04-10T00:48:08.119Z,56.86
2018-04-10T00:50:39.086Z,56.73
2018-04-10T00:53:22.485Z,56.70
2018-04-10T00:55:53.525Z,56.75
2018-04-10T00:58:24.499Z,56.66
2018-04-10T01:00:55.511Z,56.68
2018-04-10T01:03:26.470Z,56.39
2018-04-10T01:05:57.493Z,56.50
2018-04-10T01:08:28.543Z,56.52
2018-04-10T01:10:59.535Z,56.64
2018-04-10T01:13:30.585Z,56.83
2018-04-10T01:16:01.617Z,56.95
2018-04-10T01:18:32.617Z,56.73
2018-04-10T01:21:03.634Z,56.53
2018-04-10T01:23:34.633Z,56.29
2018-04-10T01:26:05.619Z,55.99
2018-04-10T01:28:36.556Z,55.91
2018-04-10T01:31:07.568Z,56.15
2018-04-10T01:33:38.555Z,55.81
2018-04-10T01:36:09.609Z,55.49
2018-04-10T01:38:40.635Z,55.58
2018-04-10T01:41:11.617Z,56.13
2018-04-10T01:43:42.627Z,57.28
2018-04-10T01:46:13.598Z,57.09
2018-04-10T01:48:44.639Z,57.51
2018-04-10T01:51:15.667Z,57.61
2018-04-10T01:53:46.700Z,57.55
2018-04-10T01:56:17.667Z,57.90
2018-04-10T01:58:48.663Z,58.10
2018-04-10T02:01:19.696Z,58.10
2018-04-10T02:03:50.724Z,57.96
2018-04-10T02:06:21.754Z,58.06
2018-04-10T02:08:52.754Z,58.24
2018-04-10T02:11:23.807Z,58.06
2018-04-10T02:13:54.779Z,58.13
2018-04-10T02:16:25.823Z,58.29
2018-04-10T02:18:56.850Z,59.09
2018-04-10T02:21:27.820Z,59.76
2018-04-10T02:23:58.803Z,59.83
2018-04-10T02:26:29.771Z,60.80
2018-04-10T02:29:00.751Z,60.54
2018-04-10T02:31:31.758Z,60.40
2018-04-10T02:34:02.759Z,60.45
2018-04-10T02:36:33.824Z,60.47
2018-04-10T02:39:04.832Z,60.43
2018-04-10T02:41:35.877Z,60.34
2018-04-10T02:44:06.903Z,60.70
2018-04-10T02:46:37.927Z,60.52
2018-04-10T02:49:08.897Z,60.60
2018-04-10T02:51:39.870Z,61.02
2018-04-10T02:54:10.855Z,61.35
2018-04-10T02:56:41.853Z,62.50
2018-04-10T02:59:12.847Z,62.75
2018-04-10T03:01:43.855Z,62.50
2018-04-10T03:04:14.870Z,62.13
2018-04-10T03:06:45.865Z,62.03
2018-04-10T03:09:16.849Z,62.04
2018-04-10T03:11:47.867Z,62.37
2018-04-10T03:14:18.864Z,62.40
2018-04-10T03:16:49.906Z,62.48
2018-04-10T03:19:20.919Z,62.39
2018-04-10T03:21:51.929Z,62.24
2018-04-10T03:24:22.897Z,62.16
2018-04-10T03:26:53.892Z,62.20
2018-04-10T03:29:24.939Z,63.14
2018-04-10T03:31:55.939Z,63.21
2018-04-10T03:34:26.926Z,63.40
2018-04-10T03:36:57.897Z,63.93
2018-04-10T03:39:28.926Z,64.25
2018-04-10T03:41:59.921Z,64.37
2018-04-10T03:44:30.963Z,63.93
2018-04-10T03:47:01.953Z,63.83
2018-04-10T03:49:32.941Z,63.65
2018-04-10T03:52:03.953Z,63.60
2018-04-10T03:54:35.000Z,63.49
2018-04-10T03:57:05.978Z,63.23
2018-04-10T03:59:36.966Z,63.26
2018-04-10T04:02:07.993Z,63.83
2018-04-10T04:04:39.010Z,63.50
2018-04-10T04:07:09.993Z,62.86
2018-04-10T04:09:40.969Z,62.06
2018-04-10T04:12:11.951Z,61.36
2018-04-10T04:14:42.955Z,60.93
2018-04-10T04:17:26.178Z,60.62
2018-04-10T04:20:09.402Z,60.38
2018-04-10T04:22:40.437Z,60.24
2018-04-10T04:25:11.455Z,60.04
2018-04-10T04:27:42.430Z,59.73
2018-04-10T04:30:13.440Z,60.47
2018-04-10T04:32:44.487Z,60.73
2018-04-10T04:35:15.491Z,60.73
2018-04-10T04:37:46.551Z,60.78
2018-04-10T04:40:17.531Z,60.55
2018-04-10T04:42:48.543Z,60.85
2018-04-10T04:45:19.607Z,61.52
2018-04-10T04:47:50.609Z,61.61
2018-04-10T04:50:21.597Z,61.58
2018-04-10T04:52:52.547Z,61.38
2018-04-10T04:55:23.587Z,61.32
2018-04-10T04:57:54.605Z,61.24
2018-04-10T05:00:25.618Z,61.16
2018-04-10T05:02:56.649Z,60.93
2018-04-10T05:05:27.634Z,60.52
2018-04-10T05:07:58.658Z,60.42
2018-04-10T05:10:29.657Z,60.31
2018-04-10T05:13:00.709Z,60.68
2018-04-10T05:15:31.725Z,61.32
2018-04-10T05:18:02.777Z,61.30
2018-04-10T05:20:33.779Z,60.91
2018-04-10T05:23:04.824Z,60.42
2018-04-10T05:25:35.840Z,59.48
2018-04-10T05:28:06.864Z,59.00
2018-04-10T05:30:37.903Z,58.88
2018-04-10T05:33:08.877Z,58.57
2018-04-10T05:35:39.900Z,57.83
2018-04-10T05:38:10.893Z,57.58
2018-04-10T05:40:41.946Z,57.32
2018-04-10T05:43:12.947Z,57.01
2018-04-10T05:45:43.983Z,56.71
2018-04-10T05:48:21.954Z,56.38
2018-04-10T05:50:52.971Z,55.88
2018-04-10T05:53:24.003Z,55.33
2018-04-10T05:55:54.994Z,54.83
2018-04-10T05:58:25.985Z,54.75
2018-04-10T06:00:56.989Z,54.41
2018-04-10T06:03:28.000Z,54.23
2018-04-10T06:05:59.041Z,53.96
2018-04-10T06:08:30.075Z,53.45
2018-04-10T06:11:01.093Z,52.80
2018-04-10T06:13:32.090Z,52.62
2018-04-10T06:16:03.077Z,52.43
2018-04-10T06:18:34.122Z,52.09
2018-04-10T06:21:05.107Z,51.62
2018-04-10T06:23:36.090Z,51.19
2018-04-10T06:26:07.050Z,50.68
2018-04-10T06:28:38.021Z,50.32
2018-04-10T06:31:09.032Z,49.81
2018-04-10T06:33:39.985Z,49.22
2018-04-10T06:36:10.980Z,49.06
2018-04-10T06:38:41.980Z,48.38
2018-04-10T06:41:12.983Z,47.99
2018-04-10T06:43:43.978Z,47.34
2018-04-10T06:46:15.009Z,46.14
2018-04-10T06:48:45.995Z,45.13
2018-04-10T06:51:17.014Z,43.35
2018-04-10T06:53:47.977Z,41.60
2018-04-10T06:56:19.017Z,38.43
2018-04-10T06:58:50.040Z,29.40
2018-04-10T07:01:21.014Z,22.39
2018-04-10T07:03:52.020Z,17.89
2018-04-10T07:06:23.030Z,15.62
2018-04-10T07:08:54.089Z,13.56
2018-04-10T07:11:25.061Z,13.19
2018-04-10T07:13:56.111Z,12.01
2018-04-10T07:16:27.061Z,11.04
2018-04-10T07:18:58.063Z,10.30
2018-04-10T07:21:29.066Z,9.71
2018-04-10T07:24:00.042Z,9.23
2018-04-10T07:26:31.050Z,8.52
2018-04-10T07:29:02.055Z,7.91
2018-04-10T07:31:33.073Z,7.60
2018-04-10T07:34:04.107Z,7.35
2018-04-10T07:36:35.097Z,7.27
2018-04-10T07:39:06.703Z,7.55
2018-04-10T07:41:37.697Z,7.63
2018-04-10T07:44:08.699Z,7.50
2018-04-10T07:46:39.674Z,7.82
2018-04-10T07:49:10.645Z,8.18
2018-04-10T07:51:41.625Z,9.54
2018-04-10T07:54:12.593Z,9.71
2018-04-10T07:56:43.603Z,10.35
2018-04-10T07:59:14.650Z,10.38
2018-04-10T08:01:45.655Z,10.36
2018-04-10T08:04:16.679Z,10.66
2018-04-10T08:06:47.649Z,11.34
2018-04-10T08:09:18.680Z,12.61
2018-04-10T08:11:49.676Z,13.83
2018-04-10T08:14:20.673Z,15.24
2018-04-10T08:16:51.728Z,16.72
2018-04-10T08:19:22.678Z,17.82
2018-04-10T08:21:53.699Z,18.31
2018-04-10T08:24:24.708Z,19.10
2018-04-10T08:26:55.709Z,20.06
2018-04-10T08:29:26.724Z,21.05
2018-04-10T08:31:57.728Z,21.37
2018-04-10T08:34:28.700Z,22.03
2018-04-10T08:36:59.702Z,22.46
2018-04-10T08:39:30.751Z,22.33
2018-04-10T08:42:01.755Z,23.02
2018-04-10T08:44:32.772Z,23.07
2018-04-10T08:47:03.768Z,22.99
2018-04-10T08:49:34.770Z,23.36
2018-04-10T08:52:06.395Z,23.43
2018-04-10T08:54:37.454Z,23.94
2018-04-10T08:57:08.401Z,23.81
2018-04-10T08:59:39.409Z,23.92
2018-04-10T09:02:10.424Z,24.04
2018-04-10T09:04:41.358Z,24.09
2018-04-10T09:07:12.343Z,23.94
2018-04-10T09:09:43.368Z,23.77
2018-04-10T09:12:14.387Z,24.10
2018-04-10T09:14:45.366Z,23.74
2018-04-10T09:17:16.409Z,23.40
2018-04-10T09:19:47.441Z,23.31
2018-04-10T09:22:18.444Z,22.93
2018-04-10T09:24:49.425Z,22.98
2018-04-10T09:27:20.386Z,22.79
2018-04-10T09:29:51.369Z,22.13
2018-04-10T09:32:22.345Z,21.75
2018-04-10T09:34:53.289Z,21.98
2018-04-10T09:37:24.262Z,21.89
2018-04-10T09:39:55.282Z,21.00
2018-04-10T09:42:26.262Z,19.97
2018-04-10T09:44:57.257Z,19.57
2018-04-10T09:47:28.284Z,18.88
2018-04-10T09:49:59.274Z,18.43
2018-04-10T09:52:30.319Z,17.89
2018-04-10T09:55:01.283Z,17.01
2018-04-10T09:57:32.255Z,16.33
2018-04-10T10:00:03.208Z,15.83
2018-04-10T10:02:34.272Z,15.73
2018-04-10T10:05:06.208Z,15.35
2018-04-10T10:07:37.255Z,15.18
2018-04-10T10:10:08.265Z,14.96
2018-04-10T10:12:39.258Z,14.67
2018-04-10T10:15:10.240Z,14.77
2018-04-10T10:17:41.303Z,15.24
2018-04-10T10:20:12.348Z,15.41
2018-04-10T10:22:43.345Z,15.32
2018-04-10T10:25:14.337Z,15.30
2018-04-10T10:27:45.377Z,15.49
2018-04-10T10:30:16.358Z,15.94
2018-04-10T10:32:47.352Z,15.90
2018-04-10T10:35:18.345Z,15.90
2018-04-10T10:37:49.319Z,15.67
2018-04-10T10:40:20.315Z,15.29
2018-04-10T10:42:51.295Z,15.56
2018-04-10T10:45:22.273Z,15.69
2018-04-10T10:47:53.290Z,15.69
2018-04-10T10:50:24.254Z,15.81
2018-04-10T10:52:55.277Z,15.55
2018-04-10T10:55:26.310Z,16.08
2018-04-10T10:57:57.297Z,16.68
2018-04-10T11:00:28.269Z,17.41
2018-04-10T11:02:59.265Z,17.78
2018-04-10T11:05:30.298Z,17.82
2018-04-10T11:08:01.291Z,18.01
2018-04-10T11:10:32.305Z,18.44
2018-04-10T11:13:03.292Z,18.63
2018-04-10T11:15:34.250Z,18.62
2018-04-10T11:18:05.237Z,18.34
2018-04-10T11:20:36.191Z,18.39
2018-04-10T11:23:07.217Z,19.22
2018-04-10T11:25:38.186Z,19.42
2018-04-10T11:28:09.196Z,19.87
2018-04-10T11:30:40.165Z,19.89
2018-04-10T11:33:11.159Z,20.00
2018-04-10T11:35:42.143Z,20.04
2018-04-10T11:38:13.121Z,20.45
2018-04-10T11:40:44.077Z,20.80
2018-04-10T11:43:15.125Z,20.77
2018-04-10T11:45:46.147Z,20.69
2018-04-10T11:48:17.104Z,20.92
2018-04-10T11:50:48.073Z,21.06
2018-04-10T11:53:19.069Z,21.12
2018-04-10T11:55:50.094Z,21.40
2018-04-10T11:58:21.060Z,21.68
2018-04-10T12:00:52.043Z,21.82
2018-04-10T12:03:23.017Z,21.93
2018-04-10T12:05:53.990Z,22.27
2018-04-10T12:08:24.988Z,23.73
2018-04-10T12:10:55.976Z,25.25
2018-04-10T12:13:26.983Z,26.21
2018-04-10T12:15:57.972Z,26.55
2018-04-10T12:18:28.954Z,26.82
2018-04-10T12:20:59.979Z,26.89
2018-04-10T12:23:30.991Z,26.75
2018-04-10T12:26:01.969Z,26.79
2018-04-10T12:28:32.943Z,26.89
2018-04-10T12:31:03.947Z,27.50
2018-04-10T12:33:34.926Z,27.77
2018-04-10T12:36:05.933Z,27.66
2018-04-10T12:38:36.972Z,27.94
2018-04-10T12:41:07.973Z,28.57
2018-04-10T12:43:38.990Z,28.70
2018-04-10T12:46:09.990Z,28.34
2018-04-10T12:48:41.032Z,28.23
2018-04-10T12:51:12.031Z,28.18
2018-04-10T12:53:43.042Z,28.09
2018-04-10T12:56:14.026Z,27.67
2018-04-10T12:58:45.063Z,27.32
2018-04-10T13:01:16.026Z,27.07
2018-04-10T13:03:47.051Z,26.89
2018-04-10T13:06:18.061Z,26.48
2018-04-10T13:08:49.081Z,26.43
2018-04-10T13:11:20.057Z,26.40
2018-04-10T13:13:51.062Z,26.33
2018-04-10T13:16:22.034Z,26.34
2018-04-10T13:18:53.005Z,26.40
2018-04-10T13:21:24.079Z,26.65
2018-04-10T13:23:55.082Z,26.89
2018-04-10T13:26:26.100Z,27.16
2018-04-10T13:28:57.061Z,27.03
2018-04-10T13:31:28.073Z,26.81
2018-04-10T13:33:59.124Z,26.83
2018-04-10T13:36:30.085Z,26.81
2018-04-10T13:39:01.100Z,26.85
2018-04-10T13:41:32.111Z,26.71
2018-04-10T13:44:03.139Z,26.51
2018-04-10T13:46:34.093Z,26.23
2018-04-10T13:49:05.101Z,26.54
2018-04-10T13:51:36.095Z,26.57
2018-04-10T13:54:07.088Z,26.67
2018-04-10T13:56:38.084Z,26.32
2018-04-10T13:59:09.044Z,26.00
2018-04-10T14:01:40.094Z,25.72
2018-04-10T14:04:11.086Z,25.66
2018-04-10T14:06:42.084Z,25.21
2018-04-10T14:09:13.079Z,25.23
2018-04-10T14:11:44.107Z,25.09
2018-04-10T14:14:15.112Z,25.17
2018-04-10T14:16:46.122Z,25.36
2018-04-10T14:19:17.167Z,25.67
2018-04-10T14:21:48.175Z,26.09
2018-04-10T14:24:19.175Z,26.05
2018-04-10T14:26:50.186Z,25.86
2018-04-10T14:29:21.159Z,25.88
2018-04-10T14:31:52.180Z,26.08
2018-04-10T14:34:23.209Z,26.17
2018-04-10T14:36:54.246Z,26.46
2018-04-10T14:39:25.246Z,26.59
2018-04-10T14:41:56.225Z,26.50
2018-04-10T14:44:27.303Z,26.31
2018-04-10T14:46:58.391Z,26.43
2018-04-10T14:49:29.410Z,26.66
2018-04-10T14:52:00.420Z,26.87
2018-04-10T14:54:31.410Z,26.89
2018-04-10T14:57:02.399Z,26.99
2018-04-10T14:59:33.384Z,27.13
2018-04-10T15:02:04.415Z,27.56
2018-04-10T15:04:35.431Z,27.75
2018-04-10T15:07:06.428Z,28.00
2018-04-10T15:09:37.482Z,28.04
2018-04-10T15:12:08.485Z,28.28
2018-04-10T15:14:39.503Z,28.68
2018-04-10T15:17:10.497Z,28.88
2018-04-10T15:19:41.531Z,29.23
2018-04-10T15:22:12.495Z,29.28
2018-04-10T15:24:43.511Z,29.25
2018-04-10T15:27:14.460Z,29.63
2018-04-10T15:29:45.443Z,30.18
2018-04-10T15:32:16.754Z,30.73
2018-04-10T15:34:47.775Z,30.91
2018-04-10T15:37:18.808Z,31.38
2018-04-10T15:39:49.820Z,31.73
2018-04-10T15:42:20.824Z,32.52
2018-04-10T15:44:51.839Z,32.88
2018-04-10T15:47:22.870Z,33.35
2018-04-10T15:49:53.820Z,33.75
2018-04-10T15:52:24.860Z,33.61
2018-04-10T15:54:55.910Z,33.94
2018-04-10T15:57:26.962Z,34.16
2018-04-10T15:59:58.025Z,34.48
2018-04-10T16:02:29.019Z,34.81
2018-04-10T16:04:59.963Z,34.82
2018-04-10T16:07:30.969Z,34.99
2018-04-10T16:10:01.954Z,35.33
2018-04-10T16:12:32.949Z,35.71
2018-04-10T16:15:03.979Z,36.08
2018-04-10T16:17:34.982Z,36.41
2018-04-10T16:20:06.053Z,36.83
2018-04-10T16:22:37.045Z,37.08
2018-04-10T16:25:08.051Z,36.97
2018-04-10T16:27:39.042Z,37.28
2018-04-10T16:30:10.022Z,37.34
2018-04-10T16:32:41.044Z,37.49
2018-04-10T16:35:12.047Z,37.71
2018-04-10T16:37:43.045Z,38.05
2018-04-10T16:40:14.041Z,38.33
2018-04-10T16:42:45.002Z,38.82
2018-04-10T16:45:15.983Z,39.05
2018-04-10T16:47:46.995Z,39.20
2018-04-10T16:50:17.983Z,39.48
2018-04-10T16:52:49.035Z,39.53
2018-04-10T16:55:20.060Z,39.83
2018-04-10T16:57:51.065Z,40.21
2018-04-10T17:00:22.063Z,40.43
2018-04-10T17:02:53.107Z,40.70
2018-04-10T17:05:24.080Z,40.90
2018-04-10T17:07:55.058Z,41.11
2018-04-10T17:10:26.023Z,41.12
2018-04-10T17:12:56.998Z,41.25
2018-04-10T17:15:27.998Z,41.37
2018-04-10T17:17:58.987Z,41.55
2018-04-10T17:20:30.040Z,41.68
2018-04-10T17:23:01.092Z,41.77
2018-04-10T17:25:32.084Z,41.72
2018-04-10T17:28:03.098Z,41.95
2018-04-10T17:30:34.090Z,42.17
2018-04-10T17:33:05.113Z,42.65
2018-04-10T17:35:36.117Z,42.87
2018-04-10T17:38:07.147Z,43.04
2018-04-10T17:40:38.124Z,43.33
2018-04-10T17:43:09.155Z,43.54
2018-04-10T17:45:40.166Z,43.85
2018-04-10T17:48:11.201Z,44.14
2018-04-10T17:50:42.205Z,44.51
2018-04-10T17:53:13.201Z,44.70
2018-04-10T17:55:44.143Z,44.91
2018-04-10T17:58:15.151Z,45.26
2018-04-10T18:00:46.176Z,45.51
2018-04-10T18:03:17.192Z,45.71
2018-04-10T18:05:48.395Z,46.03
2018-04-10T18:08:19.419Z,46.34
2018-04-10T18:10:50.475Z,46.60
2018-04-10T18:13:21.470Z,46.68
2018-04-10T18:15:52.476Z,47.19
2018-04-10T18:18:23.485Z,47.10
2018-04-10T18:20:54.471Z,47.17
2018-04-10T18:23:25.472Z,47.45
2018-04-10T18:25:56.469Z,47.60
2018-04-10T18:28:27.443Z,48.13
2018-04-10T18:30:58.421Z,47.98
2018-04-10T18:33:29.422Z,47.91
2018-04-10T18:36:00.430Z,48.12
2018-04-10T18:38:31.439Z,48.52
2018-04-10T18:41:02.397Z,48.83
2018-04-10T18:43:33.381Z,48.60
2018-04-10T18:46:04.364Z,48.78
2018-04-10T18:48:35.373Z,49.18
2018-04-10T18:51:06.367Z,49.10
2018-04-10T18:53:37.367Z,48.93
2018-04-10T18:56:08.378Z,48.48
2018-04-10T18:58:39.343Z,48.54
2018-04-10T19:01:10.339Z,48.28
2018-04-10T19:03:41.339Z,48.09
2018-04-10T19:06:12.330Z,48.22
2018-04-10T19:08:43.303Z,48.54
2018-04-10T19:11:14.351Z,48.64
2018-04-10T19:13:45.374Z,48.56
2018-04-10T19:16:16.364Z,48.83
2018-04-10T19:18:47.309Z,48.56
2018-04-10T19:21:18.308Z,48.82
2018-04-10T19:23:49.314Z,48.89
2018-04-10T19:26:20.326Z,49.08
2018-04-10T19:28:51.319Z,49.25
2018-04-10T19:31:22.354Z,49.74
2018-04-10T19:33:53.308Z,50.08
2018-04-10T19:36:24.343Z,50.42
2018-04-10T19:38:55.383Z,50.46
2018-04-10T19:41:26.350Z,50.60
2018-04-10T19:43:57.363Z,50.58
2018-04-10T19:46:28.333Z,51.06
2018-04-10T19:48:59.348Z,51.16
2018-04-10T19:51:30.295Z,51.10
2018-04-10T19:54:01.356Z,50.89
2018-04-10T19:56:32.367Z,51.39
2018-04-10T19:59:03.336Z,51.77
2018-04-10T20:01:34.314Z,49.90
2018-04-10T20:04:05.312Z,48.37
2018-04-10T20:06:36.329Z,48.58
2018-04-10T20:09:07.365Z,48.68
2018-04-10T20:11:38.377Z,48.41
2018-04-10T20:14:09.389Z,48.55
2018-04-10T20:16:40.379Z,48.72
2018-04-10T20:19:11.345Z,48.91
2018-04-10T20:21:42.358Z,48.91
2018-04-10T20:24:13.375Z,49.26
2018-04-10T20:26:44.399Z,49.31
2018-04-10T20:29:15.453Z,49.35
2018-04-10T20:31:46.509Z,49.57
2018-04-10T20:34:17.517Z,49.68
2018-04-10T20:36:48.513Z,49.69
2018-04-10T20:39:19.531Z,49.77
2018-04-10T20:41:50.536Z,49.63
2018-04-10T20:44:21.580Z,49.56
2018-04-10T20:46:52.573Z,49.49
2018-04-10T20:49:23.623Z,49.57
2018-04-10T20:51:54.651Z,49.77
2018-04-10T20:54:25.618Z,49.75
2018-04-10T20:56:56.581Z,49.81
2018-04-10T20:59:27.604Z,49.83
2018-04-10T21:01:58.641Z,49.66
2018-04-10T21:04:29.585Z,49.46
2018-04-10T21:07:00.589Z,49.33
2018-04-10T21:09:31.579Z,49.19
2018-04-10T21:12:02.643Z,49.00
2018-04-10T21:14:33.643Z,48.80
2018-04-10T21:17:04.641Z,48.54
2018-04-10T21:19:35.626Z,48.49
2018-04-10T21:22:06.597Z,48.43
2018-04-10T21:24:37.567Z,48.36
2018-04-10T21:27:08.525Z,48.63
2018-04-10T21:29:39.508Z,48.87
2018-04-10T21:32:10.521Z,49.26
2018-04-10T21:34:41.507Z,49.46
2018-04-10T21:37:12.481Z,49.80
2018-04-10T21:39:43.476Z,50.05
2018-04-10T21:42:14.461Z,50.00
2018-04-10T21:44:45.429Z,50.17
2018-04-10T21:47:16.425Z,50.00
2018-04-10T21:49:47.377Z,49.99
2018-04-10T21:52:18.372Z,49.83
2018-04-10T21:54:49.353Z,49.64
2018-04-10T21:57:20.298Z,49.32
2018-04-10T21:59:51.289Z,49.15
2018-04-10T22:02:22.254Z,48.83
2018-04-10T22:04:53.282Z,48.54
2018-04-10T22:07:24.275Z,48.35
2018-04-10T22:09:55.315Z,48.27
2018-04-10T22:12:26.293Z,48.07
2018-04-10T22:14:57.330Z,47.86
2018-04-10T22:17:28.315Z,47.92
2018-04-10T22:19:59.312Z,47.96
2018-04-10T22:22:30.357Z,48.01
2018-04-10T22:25:01.361Z,48.14
2018-04-10T22:27:32.375Z,48.14
2018-04-10T22:30:03.375Z,48.41
2018-04-10T22:32:34.360Z,48.64
2018-04-10T22:35:05.286Z,48.88
2018-04-10T22:37:36.272Z,49.24
2018-04-10T22:40:07.277Z,49.50
2018-04-10T22:42:38.271Z,49.45
2018-04-10T22:45:09.294Z,49.42
2018-04-10T22:47:40.289Z,49.82
2018-04-10T22:50:11.284Z,49.86
2018-04-10T22:52:42.302Z,49.95
2018-04-10T22:55:13.340Z,49.99
2018-04-10T22:57:44.309Z,50.12
2018-04-10T23:00:16.314Z,50.60
2018-04-10T23:02:47.293Z,50.90
2018-04-10T23:05:18.275Z,50.58
2018-04-10T23:07:49.297Z,51.31
2018-04-10T23:10:20.312Z,51.73
2018-04-10T23:12:51.288Z,52.34
2018-04-10T23:15:22.336Z,52.66
2018-04-10T23:17:53.310Z,53.13
2018-04-10T23:20:24.381Z,53.17
2018-04-10T23:22:55.355Z,53.33
2018-04-10T23:25:26.358Z,53.51
2018-04-10T23:27:57.339Z,54.53
2018-04-10T23:30:28.352Z,55.72
2018-04-10T23:32:59.345Z,56.60
2018-04-10T23:35:30.375Z,57.24
2018-04-10T23:38:01.349Z,57.61
2018-04-10T23:40:32.392Z,57.48
2018-04-10T23:43:03.469Z,58.14
2018-04-10T23:45:34.476Z,58.14
2018-04-10T23:48:05.514Z,58.82
2018-04-10T23:50:36.500Z,58.99
2018-04-10T23:53:07.540Z,58.86
2018-04-10T23:55:38.575Z,58.65
2018-04-10T23:58:09.560Z,58.94
